Palm Springs (PSP/KPSP)

Map

Destinations

Information

Location
Palm Springs, CA
Local Time
13:36 / 1:36 pm
GMT Time
20:36 / 8:36 pm
Gates
9
No FAA reported delays
METAR KPSP 231953Z 03010KT 10SM CLR 39/M06 A3012 RMK AO2 SLP193 T03891056
TAF KPSP 231733Z 2318/2418 VRB05KT P6SM SKC FM232000 01010KT P6SM SKC FM240200 31007KT P6SM SKC WS015/05020KT FM241600 01012G20KT P6SM SKC